createdAt,value
2023-02-11T00:00:32.396Z,82.79
2023-02-11T00:03:02.061Z,82.99
2023-02-11T00:05:34.267Z,82.98
2023-02-11T00:08:03.895Z,82.99
2023-02-11T00:10:33.482Z,82.67
2023-02-11T00:13:03.057Z,82.68
2023-02-11T00:15:32.694Z,82.80
2023-02-11T00:18:02.285Z,82.65
2023-02-11T00:20:34.417Z,82.59
2023-02-11T00:23:03.994Z,82.27
2023-02-11T00:25:33.677Z,82.13
2023-02-11T00:28:03.275Z,82.02
2023-02-11T00:30:33.097Z,81.65
2023-02-11T00:33:02.860Z,81.63
2023-02-11T00:35:35.317Z,81.61
2023-02-11T00:38:04.903Z,81.38
2023-02-11T00:40:34.563Z,81.57
2023-02-11T00:43:04.129Z,81.49
2023-02-11T00:45:33.788Z,81.41
2023-02-11T00:48:04.913Z,81.18
2023-02-11T00:50:37.106Z,81.21
2023-02-11T00:53:06.736Z,80.95
2023-02-11T00:55:36.533Z,81.03
2023-02-11T00:58:06.127Z,81.15
2023-02-11T01:00:35.894Z,81.15
2023-02-11T01:03:05.558Z,80.87
2023-02-11T01:05:37.987Z,81.15
2023-02-11T01:08:08.101Z,80.97
2023-02-11T01:10:37.706Z,80.82
2023-02-11T01:13:07.875Z,80.87
2023-02-11T01:15:37.560Z,80.71
2023-02-11T01:18:08.067Z,80.67
2023-02-11T01:20:45.166Z,80.65
2023-02-11T01:23:14.851Z,80.90
2023-02-11T01:25:45.997Z,80.62
2023-02-11T01:28:19.668Z,80.88
2023-02-11T01:30:49.598Z,80.59
2023-02-11T01:33:19.400Z,80.51
2023-02-11T01:35:51.893Z,80.49
2023-02-11T01:38:23.494Z,80.42
2023-02-11T01:40:57.461Z,80.37
2023-02-11T01:43:28.594Z,80.35
2023-02-11T01:46:09.845Z,80.52
2023-02-11T01:48:41.646Z,80.33
2023-02-11T01:51:16.634Z,80.42
2023-02-11T01:53:59.358Z,80.30
2023-02-11T01:56:42.954Z,80.35
2023-02-11T01:59:15.645Z,80.41
2023-02-11T02:01:49.851Z,80.25
2023-02-11T02:04:19.980Z,80.26
2023-02-11T02:06:55.653Z,80.35
2023-02-11T02:09:26.954Z,80.47
2023-02-11T02:11:56.840Z,80.51
2023-02-11T02:14:29.028Z,80.59
2023-02-11T02:16:58.682Z,80.57
2023-02-11T02:19:51.658Z,80.78
2023-02-11T02:23:03.681Z,80.66
2023-02-11T02:26:14.548Z,80.43
2023-02-11T02:29:25.180Z,80.40
2023-02-11T02:32:39.316Z,80.32
2023-02-11T02:35:19.338Z,80.42
2023-02-11T02:37:54.290Z,80.62
2023-02-11T02:40:27.099Z,80.43
2023-02-11T02:42:58.162Z,80.44
2023-02-11T02:45:27.793Z,80.55
2023-02-11T02:47:58.314Z,80.56
2023-02-11T02:50:33.632Z,80.72
2023-02-11T02:53:14.834Z,80.55
2023-02-11T02:55:52.482Z,80.53
2023-02-11T02:58:49.903Z,80.69
2023-02-11T03:01:27.926Z,80.58
2023-02-11T03:04:02.664Z,80.77
2023-02-11T03:06:37.788Z,80.80
2023-02-11T03:09:11.460Z,80.93
2023-02-11T03:11:41.778Z,80.69
2023-02-11T03:14:14.216Z,80.75
2023-02-11T03:16:44.185Z,80.81
2023-02-11T03:19:16.564Z,80.84
2023-02-11T03:21:49.913Z,80.95
2023-02-11T03:24:23.183Z,80.76
2023-02-11T03:26:55.529Z,80.77
2023-02-11T03:29:34.652Z,80.99
2023-02-11T03:32:08.177Z,80.92
2023-02-11T03:34:43.303Z,80.94
2023-02-11T03:37:17.379Z,80.86
2023-02-11T03:39:50.589Z,80.98
2023-02-11T03:42:21.233Z,80.88
2023-02-11T03:45:08.576Z,80.81
2023-02-11T03:47:40.332Z,80.88
2023-02-11T03:50:11.844Z,80.72
2023-02-11T03:52:44.230Z,80.86
2023-02-11T03:55:16.378Z,80.68
2023-02-11T03:57:46.039Z,80.97
2023-02-11T04:00:16.880Z,81.00
2023-02-11T04:02:46.975Z,81.20
2023-02-11T04:05:18.335Z,81.41
2023-02-11T04:07:50.517Z,81.63
2023-02-11T04:10:20.621Z,81.47
2023-02-11T04:12:50.363Z,81.81
2023-02-11T04:15:20.211Z,81.97
2023-02-11T04:17:49.850Z,82.02
2023-02-11T04:20:19.650Z,82.08
2023-02-11T04:22:51.838Z,82.04
2023-02-11T04:25:21.666Z,82.22
2023-02-11T04:27:51.302Z,82.58
2023-02-11T04:30:21.212Z,82.98
2023-02-11T04:32:50.914Z,83.22
2023-02-11T04:35:20.712Z,83.48
2023-02-11T04:37:52.900Z,83.87
2023-02-11T04:40:22.738Z,84.06
2023-02-11T04:42:52.365Z,83.99
2023-02-11T04:45:22.005Z,84.10
2023-02-11T04:47:51.622Z,84.22
2023-02-11T04:50:21.395Z,84.31
2023-02-11T04:52:53.587Z,84.45
2023-02-11T04:55:23.194Z,84.15
2023-02-11T04:57:52.828Z,84.28
2023-02-11T05:00:22.601Z,84.29
2023-02-11T05:02:52.228Z,84.30
2023-02-11T05:05:22.028Z,83.94
2023-02-11T05:07:54.545Z,84.02
2023-02-11T05:10:24.155Z,84.06
2023-02-11T05:12:55.895Z,84.00
2023-02-11T05:15:25.752Z,83.78
2023-02-11T05:17:56.294Z,83.99
2023-02-11T05:20:26.015Z,83.86
2023-02-11T05:22:58.286Z,84.07
2023-02-11T05:25:27.906Z,84.29
2023-02-11T05:27:57.533Z,84.27
2023-02-11T05:30:27.210Z,84.57
2023-02-11T05:32:56.889Z,84.84
2023-02-11T05:35:26.604Z,85.11
2023-02-11T05:37:58.762Z,85.35
2023-02-11T05:40:28.390Z,85.39
2023-02-11T05:42:57.978Z,85.46
2023-02-11T05:45:27.618Z,85.66
2023-02-11T05:47:57.295Z,85.96
2023-02-11T05:50:27.129Z,86.18
2023-02-11T05:52:59.326Z,86.45
2023-02-11T05:55:29.124Z,86.59
2023-02-11T05:57:58.777Z,86.83
2023-02-11T06:00:29.042Z,87.10
2023-02-11T06:02:58.714Z,87.21
2023-02-11T06:05:28.549Z,87.29
2023-02-11T06:08:01.123Z,87.56
2023-02-11T06:10:30.722Z,87.54
2023-02-11T06:13:00.321Z,87.91
2023-02-11T06:15:29.941Z,88.03
2023-02-11T06:17:59.700Z,87.85
2023-02-11T06:20:29.842Z,87.98
2023-02-11T06:23:02.102Z,88.28
2023-02-11T06:25:31.816Z,88.36
2023-02-11T06:28:01.472Z,88.57
2023-02-11T06:30:31.124Z,88.46
2023-02-11T06:33:00.714Z,88.71
2023-02-11T06:35:30.295Z,88.70
2023-02-11T06:38:02.503Z,88.85
2023-02-11T06:40:32.199Z,89.27
2023-02-11T06:43:01.822Z,89.15
2023-02-11T06:45:31.465Z,89.39
2023-02-11T06:48:01.055Z,89.45
2023-02-11T06:50:30.656Z,89.59
2023-02-11T06:53:04.389Z,89.98
2023-02-11T06:55:33.958Z,90.03
2023-02-11T06:58:03.631Z,90.08
2023-02-11T07:00:33.262Z,90.05
2023-02-11T07:03:03.068Z,90.27
2023-02-11T07:05:34.204Z,90.42
2023-02-11T07:08:07.060Z,90.55
2023-02-11T07:10:37.095Z,90.38
2023-02-11T07:13:06.792Z,90.46
2023-02-11T07:15:36.442Z,90.50
2023-02-11T07:18:06.220Z,90.64
2023-02-11T07:20:35.845Z,90.59
2023-02-11T07:23:08.294Z,90.84
2023-02-11T07:25:38.346Z,90.66
2023-02-11T07:28:08.334Z,90.73
2023-02-11T07:30:37.985Z,90.87
2023-02-11T07:33:07.556Z,90.72
2023-02-11T07:35:37.124Z,90.81
2023-02-11T07:38:09.312Z,90.70
2023-02-11T07:40:39.474Z,91.02
2023-02-11T07:43:09.478Z,90.90
2023-02-11T07:45:41.465Z,90.85
2023-02-11T07:48:11.100Z,90.88
2023-02-11T07:50:40.794Z,90.75
2023-02-11T07:53:13.042Z,90.91
2023-02-11T07:55:43.055Z,90.91
2023-02-11T07:58:13.024Z,90.75
2023-02-11T08:00:42.710Z,90.95
2023-02-11T08:03:12.916Z,90.82
2023-02-11T08:05:43.891Z,90.95
2023-02-11T08:08:16.100Z,90.84
2023-02-11T08:10:45.902Z,90.85
2023-02-11T08:13:15.635Z,90.98
2023-02-11T08:15:45.213Z,90.82
2023-02-11T08:18:15.501Z,90.90
2023-02-11T08:20:45.252Z,91.03
2023-02-11T08:23:17.473Z,90.88
2023-02-11T08:25:47.063Z,91.12
2023-02-11T08:28:16.795Z,91.10
2023-02-11T08:30:46.447Z,91.02
2023-02-11T08:33:16.090Z,90.84
2023-02-11T08:35:45.734Z,91.00
2023-02-11T08:38:18.119Z,90.67
2023-02-11T08:40:48.400Z,90.66
2023-02-11T08:43:18.388Z,90.77
2023-02-11T08:45:48.507Z,90.83
2023-02-11T08:48:18.270Z,90.83
2023-02-11T08:50:47.906Z,90.53
2023-02-11T08:53:20.207Z,90.50
2023-02-11T08:55:52.242Z,90.51
2023-02-11T08:58:22.377Z,90.36
2023-02-11T09:00:52.743Z,90.36
2023-02-11T09:03:22.632Z,90.44
2023-02-11T09:05:53.411Z,90.22
2023-02-11T09:08:28.232Z,90.27
2023-02-11T09:11:02.413Z,90.13
2023-02-11T09:13:31.888Z,90.00
2023-02-11T09:16:01.996Z,90.01
2023-02-11T09:18:31.725Z,89.91
2023-02-11T09:21:05.493Z,89.90
2023-02-11T09:23:38.870Z,89.82
2023-02-11T09:26:09.538Z,89.74
2023-02-11T09:28:39.494Z,89.85
2023-02-11T09:31:09.698Z,89.61
2023-02-11T09:33:39.624Z,89.62
2023-02-11T09:36:10.696Z,89.68
2023-02-11T09:38:42.925Z,89.52
2023-02-11T09:41:28.796Z,89.52
2023-02-11T09:43:59.749Z,89.51
2023-02-11T09:46:34.004Z,89.45
2023-02-11T09:49:04.816Z,89.31
2023-02-11T09:51:39.407Z,89.40
2023-02-11T09:54:19.693Z,89.35
2023-02-11T09:56:49.332Z,89.08
2023-02-11T09:59:20.258Z,89.23
2023-02-11T10:01:52.493Z,89.15
2023-02-11T10:04:32.300Z,89.06
2023-02-11T10:07:06.174Z,88.75
2023-02-11T10:09:49.960Z,88.98
2023-02-11T10:12:38.351Z,88.77
2023-02-11T10:15:32.494Z,88.66
2023-02-11T10:18:18.757Z,88.48
2023-02-11T10:20:52.658Z,88.27
2023-02-11T10:23:24.763Z,88.32
2023-02-11T10:25:58.067Z,88.24
2023-02-11T10:28:32.934Z,88.22
2023-02-11T10:31:04.736Z,88.00
2023-02-11T10:33:39.305Z,87.86
2023-02-11T10:36:09.822Z,87.95
2023-02-11T10:38:39.706Z,87.75
2023-02-11T10:41:12.833Z,87.86
2023-02-11T10:43:44.622Z,87.90
2023-02-11T10:46:19.399Z,87.65
2023-02-11T10:48:51.633Z,87.64
2023-02-11T10:51:25.547Z,87.68
2023-02-11T10:54:19.565Z,87.50
2023-02-11T10:56:53.903Z,87.65
2023-02-11T10:59:28.070Z,87.57
2023-02-11T11:02:00.657Z,87.59
2023-02-11T11:04:37.851Z,87.42
2023-02-11T11:07:19.612Z,87.38
2023-02-11T11:09:55.604Z,87.28
2023-02-11T11:12:42.271Z,87.41
2023-02-11T11:15:23.558Z,87.37
2023-02-11T11:17:59.610Z,87.20
2023-02-11T11:20:38.061Z,87.15
2023-02-11T11:23:14.847Z,87.08
2023-02-11T11:25:46.470Z,87.16
2023-02-11T11:28:27.171Z,87.11
2023-02-11T11:30:58.786Z,87.22
2023-02-11T11:33:30.655Z,87.26
2023-02-11T11:36:04.984Z,86.89
2023-02-11T11:38:35.161Z,86.92
2023-02-11T11:41:21.851Z,86.93
2023-02-11T11:44:06.815Z,86.83
2023-02-11T11:46:38.726Z,86.60
2023-02-11T11:49:20.195Z,86.66
2023-02-11T11:51:56.368Z,86.57
2023-02-11T11:54:26.554Z,86.46
2023-02-11T11:56:59.724Z,86.30
2023-02-11T11:59:32.431Z,86.20
2023-02-11T12:02:27.948Z,86.47
2023-02-11T12:05:04.968Z,86.27
2023-02-11T12:07:43.175Z,86.12
2023-02-11T12:10:36.046Z,86.19
2023-02-11T12:13:14.319Z,85.90
2023-02-11T12:15:54.806Z,86.03
2023-02-11T12:18:44.933Z,85.96
2023-02-11T12:21:24.132Z,85.73
2023-02-11T12:24:03.278Z,85.45
2023-02-11T12:26:38.179Z,85.49
2023-02-11T12:29:13.816Z,85.62
2023-02-11T12:31:57.717Z,85.33
2023-02-11T12:34:38.378Z,85.50
2023-02-11T12:37:17.232Z,85.23
2023-02-11T12:39:53.237Z,85.31
2023-02-11T12:42:51.636Z,85.09
2023-02-11T12:45:34.939Z,85.49
2023-02-11T12:48:18.489Z,85.25
2023-02-11T12:50:56.804Z,85.32
2023-02-11T12:53:36.489Z,85.17
2023-02-11T12:56:09.348Z,85.29
2023-02-11T12:58:45.488Z,85.13
2023-02-11T13:01:20.788Z,85.14
2023-02-11T13:03:57.207Z,85.11
2023-02-11T13:06:32.414Z,85.15
2023-02-11T13:09:04.461Z,84.88
2023-02-11T13:11:40.294Z,85.01
2023-02-11T13:14:15.670Z,84.88
2023-02-11T13:16:46.858Z,84.71
2023-02-11T13:19:24.440Z,84.64
2023-02-11T13:22:07.527Z,84.85
2023-02-11T13:24:44.627Z,84.51
2023-02-11T13:27:25.845Z,84.44
2023-02-11T13:30:21.867Z,84.61
2023-02-11T13:33:09.432Z,84.40
2023-02-11T13:35:43.292Z,84.45
2023-02-11T13:38:21.707Z,84.36
2023-02-11T13:41:02.760Z,84.12
2023-02-11T13:43:34.137Z,84.13
2023-02-11T13:46:05.286Z,84.15
2023-02-11T13:48:36.637Z,84.06
2023-02-11T13:51:10.364Z,83.89
2023-02-11T13:53:48.828Z,83.96
2023-02-11T13:56:32.641Z,84.02
2023-02-11T13:59:03.012Z,83.86
2023-02-11T14:01:44.209Z,83.84
2023-02-11T14:04:37.122Z,83.91
2023-02-11T14:07:40.176Z,83.75
2023-02-11T14:10:45.159Z,83.82
2023-02-11T14:13:25.182Z,83.55
2023-02-11T14:16:10.801Z,83.75
2023-02-11T14:19:02.466Z,83.68
2023-02-11T14:21:38.347Z,83.56
2023-02-11T14:24:38.125Z,83.69
2023-02-11T14:27:12.280Z,83.69
2023-02-11T14:29:42.373Z,83.79
2023-02-11T14:32:18.024Z,83.71
2023-02-11T14:34:54.859Z,83.57
2023-02-11T14:37:34.356Z,83.60
2023-02-11T14:40:12.574Z,83.69
2023-02-11T14:42:44.940Z,83.70
2023-02-11T14:45:19.500Z,83.60
2023-02-11T14:47:53.759Z,83.58
2023-02-11T14:50:28.240Z,83.72
2023-02-11T14:52:58.678Z,83.75
2023-02-11T14:55:33.249Z,83.77
2023-02-11T14:58:20.211Z,83.71
2023-02-11T15:00:51.539Z,83.78
2023-02-11T15:03:41.542Z,83.83
2023-02-11T15:06:19.128Z,83.65
2023-02-11T15:08:51.687Z,83.69
2023-02-11T15:11:23.466Z,83.79
2023-02-11T15:13:56.004Z,83.77
2023-02-11T15:16:27.386Z,83.41
2023-02-11T15:18:59.654Z,83.53
2023-02-11T15:21:31.408Z,83.67
2023-02-11T15:24:04.166Z,83.67
2023-02-11T15:26:33.864Z,83.51
2023-02-11T15:29:06.219Z,83.89
2023-02-11T15:31:36.115Z,83.84
2023-02-11T15:34:10.317Z,83.79
2023-02-11T15:36:40.397Z,83.96
2023-02-11T15:39:20.600Z,83.90
2023-02-11T15:41:50.172Z,83.63
2023-02-11T15:44:35.787Z,83.79
2023-02-11T15:47:05.409Z,83.71
2023-02-11T15:49:35.542Z,83.71
2023-02-11T15:52:06.288Z,84.14
2023-02-11T15:54:35.966Z,84.20
2023-02-11T15:57:06.881Z,84.03
2023-02-11T15:59:40.854Z,84.12
2023-02-11T16:02:12.449Z,83.89
2023-02-11T16:04:42.128Z,84.05
2023-02-11T16:07:45.051Z,84.01
2023-02-11T16:10:26.906Z,84.17
2023-02-11T16:12:58.842Z,84.14
2023-02-11T16:15:45.582Z,84.18
2023-02-11T16:18:37.899Z,84.41
2023-02-11T16:21:10.007Z,84.14
2023-02-11T16:23:42.087Z,84.16
2023-02-11T16:26:16.090Z,84.23
2023-02-11T16:28:45.780Z,84.07
2023-02-11T16:31:18.053Z,84.27
2023-02-11T16:33:47.792Z,84.08
2023-02-11T16:36:18.959Z,84.36
2023-02-11T16:38:48.576Z,84.22
2023-02-11T16:41:18.189Z,84.33
2023-02-11T16:43:47.819Z,84.23
2023-02-11T16:46:20.043Z,84.19
2023-02-11T16:48:49.637Z,84.13
2023-02-11T16:51:19.222Z,84.58
2023-02-11T16:53:48.810Z,84.45
2023-02-11T16:56:20.427Z,84.49
2023-02-11T16:58:50.029Z,84.33
2023-02-11T17:01:22.277Z,84.38
2023-02-11T17:03:52.044Z,84.68
2023-02-11T17:06:21.610Z,84.51
2023-02-11T17:08:51.208Z,84.43
2023-02-11T17:11:20.789Z,84.37
2023-02-11T17:13:50.475Z,84.30
2023-02-11T17:16:25.028Z,84.52
2023-02-11T17:18:55.248Z,84.44
2023-02-11T17:21:28.167Z,84.31
2023-02-11T17:23:59.131Z,84.40
2023-02-11T17:26:28.748Z,84.45
2023-02-11T17:28:58.522Z,84.09
2023-02-11T17:31:30.757Z,84.21
2023-02-11T17:34:00.594Z,84.29
2023-02-11T17:36:31.341Z,84.23
2023-02-11T17:39:00.974Z,84.39
2023-02-11T17:41:31.201Z,84.44
2023-02-11T17:44:01.462Z,84.43
2023-02-11T17:46:34.102Z,84.43
2023-02-11T17:49:04.169Z,84.34
2023-02-11T17:51:35.272Z,84.37
2023-02-11T17:54:06.118Z,84.51
2023-02-11T17:56:37.538Z,84.63
2023-02-11T17:59:08.412Z,84.41
2023-02-11T18:01:41.491Z,84.44
2023-02-11T18:04:13.850Z,84.59
2023-02-11T18:06:43.860Z,84.37
2023-02-11T18:09:13.845Z,84.52
2023-02-11T18:11:43.957Z,84.49
2023-02-11T18:14:13.730Z,84.48
2023-02-11T18:16:47.457Z,84.28
2023-02-11T18:19:17.138Z,84.43
2023-02-11T18:21:48.832Z,84.59
2023-02-11T18:24:18.876Z,84.50
2023-02-11T18:26:48.450Z,84.57
2023-02-11T18:29:18.061Z,84.78
2023-02-11T18:31:50.606Z,84.94
2023-02-11T18:34:20.163Z,84.71
2023-02-11T18:36:49.938Z,84.83
2023-02-11T18:39:20.052Z,84.97
2023-02-11T18:41:53.909Z,84.85
2023-02-11T18:44:24.765Z,84.73
2023-02-11T18:46:56.960Z,84.81
2023-02-11T18:49:26.553Z,84.93
2023-02-11T18:51:58.616Z,84.75
2023-02-11T18:54:28.264Z,84.62
2023-02-11T18:56:57.766Z,84.83
2023-02-11T18:59:27.477Z,84.76
2023-02-11T19:01:59.649Z,84.72
2023-02-11T19:04:29.293Z,84.84
2023-02-11T19:07:03.145Z,84.77
2023-02-11T19:09:33.216Z,84.76
2023-02-11T19:12:02.841Z,85.01
2023-02-11T19:14:34.958Z,85.02
2023-02-11T19:17:11.848Z,85.31
2023-02-11T19:19:41.629Z,84.90
2023-02-11T19:22:11.242Z,85.00
2023-02-11T19:24:41.359Z,84.92
2023-02-11T19:27:10.945Z,84.95
2023-02-11T19:29:40.961Z,84.67
2023-02-11T19:32:13.177Z,84.80
2023-02-11T19:34:43.739Z,84.63
2023-02-11T19:37:15.193Z,84.76
2023-02-11T19:39:45.712Z,84.72
2023-02-11T19:42:15.690Z,84.72
2023-02-11T19:44:45.277Z,84.75
2023-02-11T19:47:17.990Z,84.54
2023-02-11T19:49:48.013Z,84.60
2023-02-11T19:52:17.623Z,84.41
2023-02-11T19:54:47.261Z,84.51
2023-02-11T19:57:16.873Z,84.43
2023-02-11T19:59:46.530Z,84.41
2023-02-11T20:02:19.315Z,84.33
2023-02-11T20:04:48.959Z,84.37
2023-02-11T20:07:18.537Z,84.22
2023-02-11T20:09:48.110Z,84.08
2023-02-11T20:12:17.755Z,84.28
2023-02-11T20:14:47.370Z,84.12
2023-02-11T20:17:19.566Z,84.17
2023-02-11T20:19:49.240Z,83.96
2023-02-11T20:22:18.827Z,84.14
2023-02-11T20:24:48.461Z,84.17
2023-02-11T20:27:20.054Z,84.11
2023-02-11T20:29:49.860Z,83.99
2023-02-11T20:32:22.187Z,84.13
2023-02-11T20:34:51.827Z,83.86
2023-02-11T20:37:21.437Z,83.89
2023-02-11T20:39:51.284Z,83.88
2023-02-11T20:42:20.888Z,83.88
2023-02-11T20:44:50.484Z,83.90
2023-02-11T20:47:23.147Z,83.75
2023-02-11T20:49:52.948Z,83.98
2023-02-11T20:52:22.645Z,83.59
2023-02-11T20:54:52.321Z,83.76
2023-02-11T20:57:22.396Z,83.81
2023-02-11T20:59:52.042Z,83.55
2023-02-11T21:02:24.936Z,83.65
2023-02-11T21:04:54.628Z,83.50
2023-02-11T21:07:24.444Z,83.47
2023-02-11T21:09:54.036Z,83.43
2023-02-11T21:12:24.077Z,83.34
2023-02-11T21:14:54.037Z,83.58
2023-02-11T21:17:26.547Z,83.30
2023-02-11T21:19:56.220Z,83.19
2023-02-11T21:22:25.857Z,83.29
2023-02-11T21:24:55.493Z,83.12
2023-02-11T21:27:31.067Z,83.20
2023-02-11T21:30:02.326Z,83.33
2023-02-11T21:32:34.507Z,83.13
2023-02-11T21:35:04.172Z,83.17
2023-02-11T21:37:33.942Z,83.29
2023-02-11T21:40:03.522Z,83.15
2023-02-11T21:42:33.180Z,83.29
2023-02-11T21:45:02.787Z,83.29
2023-02-11T21:47:35.007Z,83.32
2023-02-11T21:50:04.594Z,83.35
2023-02-11T21:52:34.195Z,83.40
2023-02-11T21:55:03.768Z,83.21
2023-02-11T21:57:33.778Z,83.47
2023-02-11T22:00:03.390Z,83.20
2023-02-11T22:02:37.884Z,83.32
2023-02-11T22:05:08.139Z,83.22
2023-02-11T22:07:38.593Z,83.31
2023-02-11T22:10:09.203Z,83.33
2023-02-11T22:12:38.787Z,83.21
2023-02-11T22:15:09.604Z,83.04
2023-02-11T22:17:41.833Z,83.13
2023-02-11T22:20:12.848Z,83.10
2023-02-11T22:22:42.472Z,83.04
2023-02-11T22:25:12.083Z,83.12
2023-02-11T22:27:41.663Z,83.08
2023-02-11T22:30:12.650Z,83.06
2023-02-11T22:32:45.059Z,82.99
2023-02-11T22:35:15.033Z,83.01
2023-02-11T22:37:45.018Z,82.97
2023-02-11T22:40:16.555Z,83.18
2023-02-11T22:42:46.208Z,82.95
2023-02-11T22:45:15.869Z,83.04
2023-02-11T22:47:48.059Z,82.95
2023-02-11T22:50:18.079Z,83.09
2023-02-11T22:52:47.665Z,83.11
2023-02-11T22:55:17.327Z,83.17
2023-02-11T22:57:46.943Z,83.32
2023-02-11T23:00:18.122Z,83.35
2023-02-11T23:02:50.726Z,83.08
2023-02-11T23:05:20.480Z,83.24
2023-02-11T23:07:50.096Z,83.19
2023-02-11T23:10:20.061Z,82.98
2023-02-11T23:12:49.660Z,82.93
2023-02-11T23:15:19.492Z,83.02
2023-02-11T23:17:51.661Z,82.97
2023-02-11T23:20:21.573Z,83.04
2023-02-11T23:22:51.253Z,83.07
2023-02-11T23:25:20.962Z,82.90
2023-02-11T23:27:50.658Z,82.89
2023-02-11T23:30:21.908Z,83.05
2023-02-11T23:32:54.619Z,82.87
2023-02-11T23:35:24.909Z,82.95
2023-02-11T23:37:55.142Z,83.11
2023-02-11T23:40:25.064Z,83.10
2023-02-11T23:42:54.745Z,83.11
2023-02-11T23:45:24.348Z,83.05
2023-02-11T23:47:56.533Z,83.12
2023-02-11T23:50:26.129Z,83.04
2023-02-11T23:52:55.726Z,83.07
2023-02-11T23:55:25.356Z,82.90
2023-02-11T23:57:54.966Z,82.82
